createdAt,value
2023-04-23T00:01:35.310Z,32.45
2023-04-23T00:06:39.430Z,31.63
2023-04-23T00:11:45.003Z,30.60
2023-04-23T00:16:48.866Z,31.80
2023-04-23T00:21:52.683Z,33.40
2023-04-23T00:26:57.547Z,34.67
2023-04-23T00:32:01.209Z,29.92
2023-04-23T00:37:06.942Z,31.25
2023-04-23T00:42:12.929Z,36.72
2023-04-23T00:47:16.938Z,29.95
2023-04-23T00:52:20.342Z,33.95
2023-04-23T00:57:26.069Z,31.92
2023-04-23T01:02:32.317Z,30.08
2023-04-23T01:07:36.840Z,29.92
2023-04-23T01:12:41.735Z,30.75
2023-04-23T01:17:45.218Z,35.30
2023-04-23T01:22:50.146Z,28.45
2023-04-23T01:27:53.840Z,27.05
2023-04-23T01:32:58.159Z,28.08
2023-04-23T01:38:04.813Z,31.40
2023-04-23T01:43:08.893Z,28.67
2023-04-23T01:48:12.343Z,26.60
2023-04-23T01:53:17.085Z,29.85
2023-04-23T01:58:20.644Z,29.67
2023-04-23T02:03:24.774Z,24.70
2023-04-23T02:08:29.897Z,28.13
2023-04-23T02:13:33.343Z,26.73
2023-04-23T02:18:37.000Z,30.98
2023-04-23T02:23:42.020Z,31.60
2023-04-23T02:28:45.797Z,28.65
2023-04-23T02:33:49.210Z,27.40
2023-04-23T02:38:53.950Z,27.42
2023-04-23T02:43:57.374Z,24.10
2023-04-23T02:49:00.888Z,24.85
2023-04-23T02:54:06.116Z,24.95
2023-04-23T02:59:09.582Z,28.27
2023-04-23T03:04:13.430Z,24.90
2023-04-23T03:09:18.254Z,27.25
2023-04-23T03:14:21.643Z,29.58
2023-04-23T03:19:25.136Z,25.45
2023-04-23T03:24:31.931Z,27.75
2023-04-23T03:29:36.035Z,25.27
2023-04-23T03:34:39.725Z,27.55
2023-04-23T03:39:44.779Z,24.73
2023-04-23T03:44:48.377Z,24.70
2023-04-23T03:49:52.046Z,25.17
2023-04-23T03:54:57.427Z,24.08
2023-04-23T04:00:00.843Z,25.73
2023-04-23T04:05:04.979Z,28.27
2023-04-23T04:10:10.672Z,24.33
2023-04-23T04:15:14.385Z,27.20
2023-04-23T04:20:17.765Z,25.45
2023-04-23T04:25:24.207Z,30.10
2023-04-23T04:30:27.918Z,24.02
2023-04-23T04:35:31.622Z,24.77
2023-04-23T04:40:36.607Z,22.40
2023-04-23T04:45:40.241Z,22.48
2023-04-23T04:50:44.371Z,24.02
2023-04-23T04:55:49.445Z,20.85
2023-04-23T05:00:52.846Z,20.98
2023-04-23T05:05:58.599Z,25.35
2023-04-23T05:11:03.926Z,21.80
2023-04-23T05:16:07.571Z,26.45
2023-04-23T05:21:11.082Z,22.08
2023-04-23T05:26:15.813Z,22.48
2023-04-23T05:31:19.235Z,20.08
2023-04-23T05:36:22.618Z,19.05
2023-04-23T05:41:27.393Z,20.33
2023-04-23T05:46:31.463Z,20.75
2023-04-23T05:51:34.994Z,18.00
2023-04-23T05:56:39.765Z,21.58
2023-04-23T06:01:43.451Z,17.80
2023-04-23T06:06:47.169Z,17.83
2023-04-23T06:11:53.268Z,20.10
2023-04-23T06:16:56.971Z,19.35
2023-04-23T06:22:00.680Z,24.13
2023-04-23T06:27:05.633Z,26.50
2023-04-23T06:32:09.054Z,22.27
2023-04-23T06:37:12.677Z,20.63
2023-04-23T06:42:18.117Z,20.83
2023-04-23T06:47:22.171Z,19.83
2023-04-23T06:52:25.961Z,18.45
2023-04-23T06:57:31.179Z,21.08
2023-04-23T07:02:35.017Z,18.40
2023-04-23T07:07:38.562Z,18.20
2023-04-23T07:12:43.325Z,16.52
2023-04-23T07:17:47.109Z,17.85
2023-04-23T07:22:50.566Z,19.23
2023-04-23T07:27:55.489Z,14.27
2023-04-23T07:32:59.314Z,13.38
2023-04-23T07:38:02.739Z,20.83
2023-04-23T07:43:07.559Z,15.95
2023-04-23T07:48:11.404Z,13.95
2023-04-23T07:53:14.843Z,12.23
2023-04-23T07:58:19.792Z,10.35
2023-04-23T08:03:24.002Z,15.93
2023-04-23T08:08:27.559Z,13.43
2023-04-23T08:13:32.306Z,16.60
2023-04-23T08:18:36.287Z,7.70
2023-04-23T08:23:39.804Z,12.15
2023-04-23T08:28:44.809Z,11.07
2023-04-23T08:33:48.270Z,11.63
2023-04-23T08:38:51.699Z,9.43
2023-04-23T08:44:06.069Z,10.40
2023-04-23T08:49:10.298Z,7.57
2023-04-23T08:54:19.685Z,8.48
2023-04-23T08:59:24.596Z,7.63
2023-04-23T09:04:28.748Z,6.28
2023-04-23T09:09:33.901Z,7.15
2023-04-23T09:14:38.813Z,7.55
2023-04-23T09:19:43.953Z,9.52
2023-04-23T09:24:47.578Z,5.70
2023-04-23T09:29:55.381Z,9.48
2023-04-23T09:34:58.990Z,5.88
2023-04-23T09:40:04.900Z,5.80
2023-04-23T09:45:13.962Z,5.47
2023-04-23T09:50:18.041Z,6.75
2023-04-23T09:55:30.759Z,7.57
2023-04-23T10:00:37.574Z,13.70
2023-04-23T10:10:59.534Z,7.55
2023-04-23T10:16:21.308Z,6.50
2023-04-23T10:21:34.028Z,5.18
2023-04-23T10:26:43.206Z,8.88
2023-04-23T10:31:49.563Z,6.80
2023-04-23T10:36:53.456Z,8.40
2023-04-23T10:41:57.696Z,7.10
2023-04-23T10:47:03.629Z,6.03
2023-04-23T10:57:17.519Z,7.78
2023-04-23T11:02:25.069Z,5.10
2023-04-23T11:07:32.693Z,4.95
2023-04-23T11:12:36.171Z,6.25
2023-04-23T11:18:03.508Z,5.43
2023-04-23T11:23:07.697Z,5.93
2023-04-23T11:28:11.270Z,5.50
2023-04-23T11:33:16.087Z,4.35
2023-04-23T11:38:21.028Z,6.57
2023-04-23T11:43:24.411Z,5.22
2023-04-23T11:48:29.201Z,5.95
2023-04-23T11:53:33.006Z,3.78
2023-04-23T11:58:38.432Z,4.50
2023-04-23T12:03:50.248Z,4.78
2023-04-23T12:08:54.088Z,10.13
2023-04-23T12:13:59.144Z,5.90
2023-04-23T12:19:04.006Z,6.88
2023-04-23T12:24:07.532Z,6.15
2023-04-23T12:29:14.183Z,2.95
2023-04-23T12:34:20.094Z,4.93
2023-04-23T12:39:26.173Z,5.15
2023-04-23T12:44:30.489Z,4.47
2023-04-23T12:49:36.291Z,8.35
2023-04-23T12:54:40.835Z,11.15
2023-04-23T12:59:44.788Z,9.10
2023-04-23T13:04:49.680Z,8.77
2023-04-23T13:09:53.053Z,4.97
2023-04-23T13:14:57.177Z,7.53
2023-04-23T13:20:02.058Z,8.02
2023-04-23T13:25:06.061Z,2.45
2023-04-23T13:30:11.006Z,6.60
2023-04-23T13:35:17.090Z,4.78
2023-04-23T13:40:20.637Z,3.67
2023-04-23T13:45:24.321Z,6.47
2023-04-23T13:50:29.558Z,5.90
2023-04-23T13:55:33.794Z,3.95
2023-04-23T14:00:37.143Z,5.40
2023-04-23T14:05:42.008Z,6.55
2023-04-23T14:10:45.452Z,6.32
2023-04-23T14:15:48.914Z,4.57
2023-04-23T14:20:55.098Z,7.05
2023-04-23T14:26:04.236Z,5.38
2023-04-23T14:31:08.177Z,3.88
2023-04-23T14:36:13.103Z,5.40
2023-04-23T14:41:16.610Z,4.38
2023-04-23T14:46:20.111Z,6.60
2023-04-23T14:51:25.244Z,4.82
2023-04-23T14:56:28.700Z,5.85
2023-04-23T15:01:32.210Z,4.20
2023-04-23T15:06:37.535Z,4.25
2023-04-23T15:11:43.136Z,4.00
2023-04-23T15:16:49.353Z,4.10
2023-04-23T15:21:54.680Z,3.83
2023-04-23T15:26:59.355Z,4.38
2023-04-23T15:32:02.817Z,4.40
2023-04-23T15:37:07.589Z,8.32
2023-04-23T15:42:11.371Z,6.63
2023-04-23T15:47:14.963Z,4.25
2023-04-23T15:52:19.752Z,4.18
2023-04-23T15:57:23.477Z,6.95
2023-04-23T16:02:27.323Z,6.07
2023-04-23T16:07:32.490Z,6.35
2023-04-23T16:12:36.946Z,7.40
2023-04-23T16:17:40.698Z,7.32
2023-04-23T16:22:45.642Z,7.07
2023-04-23T16:27:49.164Z,7.80
2023-04-23T16:32:53.444Z,6.43
2023-04-23T16:37:58.450Z,8.38
2023-04-23T16:43:01.917Z,6.47
2023-04-23T16:48:05.544Z,5.20
2023-04-23T16:53:10.891Z,6.82
2023-04-23T16:58:14.645Z,5.93
2023-04-23T17:03:18.239Z,7.68
2023-04-23T17:08:24.760Z,6.28
2023-04-23T17:13:28.161Z,5.22
2023-04-23T17:18:31.840Z,5.55
2023-04-23T17:23:37.815Z,5.72
2023-04-23T17:28:41.461Z,5.13
2023-04-23T17:33:47.944Z,5.07
2023-04-23T17:38:52.679Z,4.50
2023-04-23T17:43:56.451Z,3.67
2023-04-23T17:48:59.917Z,3.35
2023-04-23T17:54:04.916Z,4.55
2023-04-23T17:59:08.406Z,4.18
2023-04-23T18:04:11.954Z,6.35
2023-04-23T18:09:17.163Z,8.20
2023-04-23T18:14:20.582Z,6.60
2023-04-23T18:19:24.021Z,4.68
2023-04-23T18:24:29.062Z,4.88
2023-04-23T18:29:32.520Z,5.60
2023-04-23T18:34:40.336Z,4.72
2023-04-23T18:39:45.785Z,5.35
2023-04-23T18:44:49.188Z,4.60
2023-04-23T18:49:54.627Z,6.80
2023-04-23T18:54:59.439Z,6.10
2023-04-23T19:00:03.270Z,6.18
2023-04-23T19:05:07.805Z,8.45
2023-04-23T19:10:13.909Z,6.70
2023-04-23T19:15:18.027Z,4.20
2023-04-23T19:20:21.821Z,6.25
2023-04-23T19:25:26.961Z,4.93
2023-04-23T19:30:30.408Z,6.22
2023-04-23T19:35:33.819Z,5.85
2023-04-23T19:40:39.129Z,7.93
2023-04-23T19:45:43.082Z,8.50
2023-04-23T19:50:49.037Z,8.00
2023-04-23T19:55:53.774Z,10.10
2023-04-23T20:00:57.289Z,11.20
2023-04-23T20:06:00.827Z,11.57
2023-04-23T20:11:05.939Z,13.13
2023-04-23T20:16:12.427Z,14.52
2023-04-23T20:21:16.131Z,29.40
2023-04-23T20:26:21.429Z,12.48
2023-04-23T20:31:25.148Z,13.75
2023-04-23T20:36:31.463Z,15.55
2023-04-23T20:41:36.778Z,38.35
2023-04-23T20:46:40.548Z,77.45
2023-04-23T20:51:43.995Z,54.97
2023-04-23T20:56:54.009Z,31.20
2023-04-23T21:01:57.618Z,19.63
2023-04-23T21:07:01.393Z,18.10
2023-04-23T21:12:06.504Z,24.00
2023-04-23T21:17:10.611Z,14.13
2023-04-23T21:22:14.131Z,14.77
2023-04-23T21:27:21.710Z,16.30
2023-04-23T21:32:25.944Z,16.42
2023-04-23T21:37:29.377Z,13.45
2023-04-23T21:42:34.165Z,13.30
2023-04-23T21:47:37.786Z,13.73
2023-04-23T21:52:43.297Z,12.70
2023-04-23T21:57:48.997Z,15.55
2023-04-23T22:02:55.166Z,15.15
2023-04-23T22:07:59.499Z,14.25
2023-04-23T22:13:04.274Z,15.70
2023-04-23T22:18:07.688Z,15.80
2023-04-23T22:23:11.282Z,15.32
2023-04-23T22:28:16.312Z,13.45
